createdAt,value
2019-03-27T00:01:30.716Z,6.37
2019-03-27T00:04:02.764Z,6.47
2019-03-27T00:06:34.760Z,6.43
2019-03-27T00:09:07.550Z,5.80
2019-03-27T00:11:39.581Z,7.00
2019-03-27T00:14:14.438Z,7.50
2019-03-27T00:16:46.398Z,7.20
2019-03-27T00:19:20.014Z,7.57
2019-03-27T00:21:52.063Z,6.97
2019-03-27T00:24:24.104Z,7.90
2019-03-27T00:26:56.206Z,8.70
2019-03-27T00:29:28.164Z,12.23
2019-03-27T00:32:00.105Z,13.50
2019-03-27T00:34:32.246Z,13.80
2019-03-27T00:37:04.206Z,11.50
2019-03-27T00:39:36.197Z,13.17
2019-03-27T00:42:08.154Z,12.13
2019-03-27T00:44:40.259Z,11.53
2019-03-27T00:47:12.162Z,11.53
2019-03-27T00:49:44.177Z,12.43
2019-03-27T00:52:16.213Z,11.80
2019-03-27T00:54:49.524Z,11.50
2019-03-27T00:57:24.397Z,11.53
2019-03-27T00:59:56.398Z,10.47
2019-03-27T01:02:29.664Z,10.23
2019-03-27T01:05:04.493Z,11.37
2019-03-27T01:07:38.192Z,10.53
2019-03-27T01:10:12.902Z,12.33
2019-03-27T01:12:46.995Z,11.97
2019-03-27T01:15:19.123Z,12.80
2019-03-27T01:17:51.093Z,13.37
2019-03-27T01:20:24.064Z,14.13
2019-03-27T01:22:56.076Z,15.03
2019-03-27T01:25:28.050Z,14.40
2019-03-27T01:28:03.145Z,18.93
2019-03-27T01:30:35.143Z,19.83
2019-03-27T01:33:07.141Z,23.27
2019-03-27T01:35:40.223Z,21.07
2019-03-27T01:38:13.234Z,23.43
2019-03-27T01:40:45.310Z,24.03
2019-03-27T01:43:17.300Z,28.23
2019-03-27T01:45:53.161Z,23.73
2019-03-27T01:48:23.099Z,23.23
2019-03-27T01:50:55.154Z,21.23
2019-03-27T01:53:28.287Z,20.50
2019-03-27T01:56:00.313Z,19.53
2019-03-27T01:58:33.461Z,19.40
2019-03-27T02:01:05.918Z,20.30
2019-03-27T02:03:37.854Z,18.80
2019-03-27T02:06:09.851Z,20.90
2019-03-27T02:08:41.806Z,20.97
2019-03-27T02:11:13.800Z,19.13
2019-03-27T02:13:45.817Z,15.97
2019-03-27T02:16:17.789Z,16.53
2019-03-27T02:18:49.797Z,14.53
2019-03-27T02:21:24.220Z,13.60
2019-03-27T02:23:56.150Z,15.20
2019-03-27T02:26:28.295Z,13.87
2019-03-27T02:29:00.315Z,14.33
2019-03-27T02:31:32.325Z,14.77
2019-03-27T02:34:04.347Z,11.90
2019-03-27T02:36:36.503Z,12.73
2019-03-27T02:39:08.509Z,13.17
2019-03-27T02:41:41.820Z,12.20
2019-03-27T02:44:13.856Z,12.47
2019-03-27T02:46:45.830Z,11.07
2019-03-27T02:49:17.874Z,13.47
2019-03-27T02:51:49.845Z,15.83
2019-03-27T02:54:21.796Z,15.90
2019-03-27T02:56:53.852Z,13.57
2019-03-27T02:59:25.868Z,13.30
2019-03-27T03:01:57.884Z,13.77
2019-03-27T03:04:29.870Z,13.37
2019-03-27T03:07:01.919Z,13.23
2019-03-27T03:09:33.955Z,14.33
2019-03-27T03:12:06.027Z,15.37
2019-03-27T03:14:38.031Z,15.30
2019-03-27T03:17:10.010Z,14.60
2019-03-27T03:19:43.780Z,13.07
2019-03-27T03:22:17.337Z,14.17
2019-03-27T03:24:50.530Z,13.57
2019-03-27T03:27:31.312Z,11.97
2019-03-27T03:30:03.389Z,14.53
2019-03-27T03:32:35.383Z,12.57
2019-03-27T03:35:09.860Z,12.50
2019-03-27T03:37:44.800Z,15.83
2019-03-27T03:40:19.259Z,13.70
2019-03-27T03:42:51.250Z,13.57
2019-03-27T03:45:23.241Z,12.17
2019-03-27T03:47:56.327Z,11.80
2019-03-27T03:50:42.597Z,12.53
2019-03-27T03:53:15.743Z,12.73
2019-03-27T03:55:48.616Z,12.83
2019-03-27T03:58:21.403Z,13.90
2019-03-27T04:01:00.739Z,16.20
2019-03-27T04:03:36.192Z,15.50
2019-03-27T04:06:08.180Z,17.70
2019-03-27T04:08:43.269Z,14.33
2019-03-27T04:11:15.283Z,16.10
2019-03-27T04:13:48.986Z,17.50
2019-03-27T04:16:20.962Z,17.17
2019-03-27T04:18:52.940Z,18.03
2019-03-27T04:21:27.014Z,19.10
2019-03-27T04:23:58.490Z,20.27
2019-03-27T04:26:33.550Z,20.80
2019-03-27T04:29:11.644Z,18.70
2019-03-27T04:31:43.728Z,21.70
2019-03-27T04:34:15.714Z,17.80
2019-03-27T04:36:47.761Z,19.60
2019-03-27T04:39:20.780Z,19.10
2019-03-27T04:41:52.721Z,18.70
2019-03-27T04:44:24.888Z,19.63
2019-03-27T04:46:56.912Z,19.83
2019-03-27T04:49:28.877Z,18.73
2019-03-27T04:52:02.471Z,16.40
2019-03-27T04:54:35.587Z,14.73
2019-03-27T04:57:11.016Z,13.67
2019-03-27T04:59:44.622Z,15.50
2019-03-27T05:02:16.614Z,16.23
2019-03-27T05:04:48.876Z,15.47
2019-03-27T05:07:20.879Z,15.47
2019-03-27T05:09:52.842Z,16.60
2019-03-27T05:12:26.055Z,14.77
2019-03-27T05:14:59.182Z,13.73
2019-03-27T05:17:44.768Z,16.03
2019-03-27T05:20:07.930Z,15.10
2019-03-27T05:22:41.462Z,13.73
2019-03-27T05:25:13.458Z,16.50
2019-03-27T05:27:46.717Z,15.03
2019-03-27T05:30:30.438Z,14.37
2019-03-27T05:33:02.419Z,15.47
2019-03-27T05:35:34.463Z,16.17
2019-03-27T05:38:11.708Z,18.20
2019-03-27T05:40:43.895Z,17.07
2019-03-27T05:43:15.869Z,16.77
2019-03-27T05:45:47.844Z,15.73
2019-03-27T05:48:19.839Z,16.10
2019-03-27T05:50:51.866Z,16.00
2019-03-27T05:53:24.849Z,16.20
2019-03-27T05:55:56.827Z,16.80
2019-03-27T05:58:28.816Z,17.47
2019-03-27T06:01:00.893Z,17.37
2019-03-27T06:03:32.843Z,17.93
2019-03-27T06:06:04.864Z,15.23
2019-03-27T06:08:36.796Z,15.57
2019-03-27T06:11:08.878Z,18.23
2019-03-27T06:13:42.256Z,18.13
2019-03-27T06:16:15.679Z,16.47
2019-03-27T06:18:50.558Z,20.20
2019-03-27T06:21:22.518Z,17.73
2019-03-27T06:23:54.474Z,21.47
2019-03-27T06:26:26.478Z,18.23
2019-03-27T06:29:00.162Z,17.83
2019-03-27T06:31:33.750Z,18.03
2019-03-27T06:34:05.727Z,18.27
2019-03-27T06:36:37.770Z,17.63
2019-03-27T06:39:09.760Z,18.20
2019-03-27T06:41:41.714Z,17.93
2019-03-27T06:44:13.700Z,16.97
2019-03-27T06:46:45.714Z,18.43
2019-03-27T06:49:17.655Z,18.30
2019-03-27T06:51:49.674Z,15.93
2019-03-27T06:54:24.188Z,14.70
2019-03-27T06:56:56.204Z,15.87
2019-03-27T06:59:29.869Z,15.80
2019-03-27T07:02:04.116Z,14.47
2019-03-27T07:04:36.187Z,13.27
2019-03-27T07:07:08.126Z,12.70
2019-03-27T07:09:42.537Z,12.57
2019-03-27T07:12:21.087Z,11.30
2019-03-27T07:14:47.513Z,12.57
2019-03-27T07:17:19.517Z,12.57
2019-03-27T07:19:51.538Z,12.10
2019-03-27T07:22:23.518Z,11.73
2019-03-27T07:24:55.567Z,11.07
2019-03-27T07:27:30.110Z,9.83
2019-03-27T07:30:02.135Z,10.43
2019-03-27T07:32:34.337Z,8.93
2019-03-27T07:35:07.002Z,8.73
2019-03-27T07:37:38.949Z,9.30
2019-03-27T07:40:11.575Z,8.60
2019-03-27T07:42:43.671Z,8.07
2019-03-27T07:45:15.770Z,7.67
2019-03-27T07:47:48.803Z,6.87
2019-03-27T07:50:20.750Z,6.73
2019-03-27T07:52:52.860Z,6.33
2019-03-27T07:55:24.886Z,5.33
2019-03-27T07:58:00.601Z,6.30
2019-03-27T08:00:32.571Z,5.67
2019-03-27T08:03:06.441Z,5.43
2019-03-27T08:05:39.961Z,5.63
2019-03-27T08:08:14.527Z,5.53
2019-03-27T08:10:46.582Z,3.93
2019-03-27T08:13:20.403Z,4.33
2019-03-27T08:15:52.578Z,4.20
2019-03-27T08:18:24.626Z,4.43
2019-03-27T08:20:56.655Z,4.60
2019-03-27T08:23:28.711Z,4.30
2019-03-27T08:36:41.849Z,3.20
2019-03-27T08:39:13.840Z,2.77
2019-03-27T08:41:45.854Z,2.80
2019-03-27T08:44:17.854Z,2.63
2019-03-27T08:46:49.827Z,2.40
2019-03-27T08:49:22.643Z,2.50
2019-03-27T08:51:54.762Z,2.27
2019-03-27T08:54:26.976Z,2.83
2019-03-27T08:57:00.455Z,2.37
2019-03-27T08:59:32.456Z,2.60
2019-03-27T09:02:04.431Z,2.13
2019-03-27T09:04:36.355Z,2.20
2019-03-27T09:07:08.382Z,2.40
2019-03-27T09:09:40.439Z,2.50
2019-03-27T09:12:16.846Z,2.07
2019-03-27T09:14:48.803Z,2.27
2019-03-27T09:17:20.794Z,1.87
2019-03-27T09:19:52.753Z,2.00
2019-03-27T09:22:24.735Z,2.30
2019-03-27T09:24:59.423Z,1.90
2019-03-27T09:27:32.924Z,2.10
2019-03-27T09:30:06.119Z,1.97
2019-03-27T09:32:40.111Z,1.70
2019-03-27T09:35:12.454Z,1.57
2019-03-27T09:37:46.274Z,1.90
2019-03-27T09:40:18.232Z,1.93
2019-03-27T09:42:50.186Z,2.00
2019-03-27T09:45:22.196Z,2.30
2019-03-27T09:47:54.231Z,1.93
2019-03-27T09:50:26.242Z,1.50
2019-03-27T09:52:59.389Z,1.77
2019-03-27T09:55:31.312Z,1.40
2019-03-27T09:58:03.327Z,1.60
2019-03-27T10:00:59.029Z,1.40
2019-03-27T10:03:30.987Z,1.57
2019-03-27T10:06:03.037Z,1.50
2019-03-27T10:08:35.240Z,2.07
2019-03-27T10:11:07.382Z,1.87
2019-03-27T10:13:40.688Z,1.70
2019-03-27T10:16:13.124Z,1.30
2019-03-27T10:18:47.431Z,2.53
2019-03-27T10:21:24.595Z,1.80
2019-03-27T10:23:58.151Z,2.03
2019-03-27T10:26:34.338Z,1.70
2019-03-27T10:29:06.647Z,2.13
2019-03-27T10:31:43.370Z,2.00
2019-03-27T10:34:15.539Z,2.17
2019-03-27T10:36:47.814Z,1.93
2019-03-27T10:39:20.095Z,1.60
2019-03-27T10:41:52.542Z,1.53
2019-03-27T10:44:24.875Z,1.53
2019-03-27T10:46:57.089Z,1.83
2019-03-27T10:49:29.036Z,1.63
2019-03-27T10:52:00.924Z,1.67
2019-03-27T10:54:33.079Z,1.70
2019-03-27T10:57:05.065Z,1.50
2019-03-27T10:59:37.010Z,1.97
2019-03-27T11:02:10.774Z,1.60
2019-03-27T11:04:43.689Z,1.53
2019-03-27T11:07:20.046Z,1.80
2019-03-27T11:09:52.074Z,1.80
2019-03-27T11:12:24.093Z,1.27
2019-03-27T11:14:56.040Z,1.60
2019-03-27T11:17:28.046Z,1.80
2019-03-27T11:20:00.003Z,2.00
2019-03-27T11:22:32.004Z,1.50
2019-03-27T11:25:06.644Z,1.77
2019-03-27T11:27:38.715Z,1.80
2019-03-27T11:30:12.594Z,2.10
2019-03-27T11:32:44.586Z,1.57
2019-03-27T11:35:17.677Z,1.63
2019-03-27T11:37:52.429Z,1.80
2019-03-27T11:40:24.617Z,1.80
2019-03-27T11:43:07.239Z,1.70
2019-03-27T11:45:39.364Z,2.17
2019-03-27T11:48:14.159Z,2.10
2019-03-27T11:50:46.577Z,1.60
2019-03-27T11:53:18.660Z,1.90
2019-03-27T11:55:56.430Z,1.97
2019-03-27T11:58:28.068Z,1.73
2019-03-27T12:01:01.856Z,1.40
2019-03-27T12:03:33.948Z,1.97
2019-03-27T12:06:05.956Z,1.70
2019-03-27T12:08:37.937Z,1.80
2019-03-27T12:11:15.863Z,3.07
2019-03-27T12:13:47.868Z,1.60
2019-03-27T12:16:19.915Z,2.00
2019-03-27T12:18:51.901Z,2.10
2019-03-27T12:21:23.835Z,1.77
2019-03-27T12:23:55.793Z,1.67
2019-03-27T12:26:29.445Z,1.67
2019-03-27T12:29:05.472Z,2.10
2019-03-27T12:31:40.916Z,2.27
2019-03-27T12:34:12.930Z,2.57
2019-03-27T12:36:47.723Z,2.20
2019-03-27T12:39:21.349Z,2.40
2019-03-27T12:41:53.596Z,2.00
2019-03-27T12:44:27.948Z,2.70
2019-03-27T12:46:59.851Z,2.77
2019-03-27T12:49:38.940Z,3.83
2019-03-27T12:52:13.505Z,3.93
2019-03-27T12:54:45.848Z,4.35
2019-03-27T12:57:17.905Z,3.83
2019-03-27T12:59:53.901Z,3.87
2019-03-27T13:02:27.444Z,2.73
2019-03-27T13:04:59.415Z,2.97
2019-03-27T13:07:31.470Z,3.07
2019-03-27T13:10:03.563Z,3.33
2019-03-27T13:12:39.137Z,3.40
2019-03-27T13:15:11.587Z,2.87
2019-03-27T13:17:48.959Z,2.93
2019-03-27T13:20:23.593Z,3.93
2019-03-27T13:22:58.547Z,3.20
2019-03-27T13:25:30.813Z,3.87
2019-03-27T13:28:02.838Z,4.03
2019-03-27T13:30:36.443Z,4.30
2019-03-27T13:33:13.167Z,4.20
2019-03-27T13:35:46.453Z,4.93
2019-03-27T13:38:21.045Z,5.07
2019-03-27T13:40:53.089Z,4.40
2019-03-27T13:43:28.224Z,4.00
2019-03-27T13:46:02.271Z,3.80
2019-03-27T13:48:34.349Z,3.90
2019-03-27T13:51:06.791Z,3.67
2019-03-27T13:53:39.044Z,3.47
2019-03-27T13:56:10.965Z,3.10
2019-03-27T13:58:44.641Z,3.87
2019-03-27T14:01:18.717Z,3.20
2019-03-27T14:03:50.848Z,3.80
2019-03-27T14:06:29.668Z,3.50
2019-03-27T14:09:01.413Z,4.17
2019-03-27T14:11:33.615Z,3.47
2019-03-27T14:14:11.414Z,3.50
2019-03-27T14:16:39.665Z,3.57
2019-03-27T14:19:11.587Z,3.93
2019-03-27T14:21:53.902Z,2.90
2019-03-27T14:24:17.193Z,3.87
2019-03-27T14:26:49.202Z,3.00
2019-03-27T14:29:21.205Z,2.97
2019-03-27T14:31:53.144Z,2.97
2019-03-27T14:34:25.158Z,2.90
2019-03-27T14:36:57.172Z,3.40
2019-03-27T14:39:29.125Z,2.60
2019-03-27T14:42:01.530Z,2.57
2019-03-27T14:44:33.692Z,2.80
2019-03-27T14:47:05.717Z,3.40
2019-03-27T14:49:37.890Z,3.30
2019-03-27T14:52:12.848Z,4.03
2019-03-27T14:54:44.977Z,3.10
2019-03-27T14:57:19.677Z,3.47
2019-03-27T14:59:56.191Z,3.30
2019-03-27T15:02:28.249Z,3.17
2019-03-27T15:05:02.928Z,3.33
2019-03-27T15:07:36.799Z,4.00
2019-03-27T15:10:12.741Z,3.00
2019-03-27T15:12:44.810Z,3.53
2019-03-27T15:15:17.173Z,4.00
2019-03-27T15:17:49.219Z,3.77
2019-03-27T15:20:21.242Z,3.80
2019-03-27T15:22:53.247Z,3.50
2019-03-27T15:25:25.441Z,3.60
2019-03-27T15:27:58.588Z,3.57
2019-03-27T15:30:30.623Z,4.33
2019-03-27T15:33:02.710Z,3.70
2019-03-27T15:35:34.703Z,3.63
2019-03-27T15:38:06.766Z,3.70
2019-03-27T15:40:48.165Z,3.57
2019-03-27T15:43:22.350Z,4.07
2019-03-27T15:45:57.567Z,4.23
2019-03-27T15:48:32.095Z,4.60
2019-03-27T15:51:04.182Z,4.30
2019-03-27T15:53:36.511Z,3.77
2019-03-27T15:56:08.526Z,4.50
2019-03-27T15:58:43.055Z,3.20
2019-03-27T16:01:18.917Z,4.00
2019-03-27T16:03:54.663Z,4.00
2019-03-27T16:06:26.562Z,3.90
2019-03-27T16:09:04.553Z,4.60
2019-03-27T16:11:36.833Z,4.67
2019-03-27T16:14:12.319Z,4.07
2019-03-27T16:17:01.330Z,4.07
2019-03-27T16:19:17.847Z,4.17
2019-03-27T16:21:51.221Z,3.77
2019-03-27T16:24:24.796Z,3.87
2019-03-27T16:27:04.243Z,4.17
2019-03-27T16:29:32.937Z,4.53
2019-03-27T16:32:05.345Z,3.97
2019-03-27T16:34:38.770Z,3.37
2019-03-27T16:37:13.921Z,4.10
2019-03-27T16:39:45.902Z,4.43
2019-03-27T16:42:17.884Z,4.10
2019-03-27T16:44:49.827Z,4.83
2019-03-27T16:47:22.154Z,3.77
2019-03-27T16:49:58.840Z,4.20
2019-03-27T16:53:03.407Z,4.47
2019-03-27T16:55:31.601Z,4.57
2019-03-27T16:58:03.742Z,4.40
2019-03-27T17:00:42.043Z,4.40
2019-03-27T17:03:14.003Z,4.67
2019-03-27T17:05:53.796Z,4.87
2019-03-27T17:08:22.891Z,5.33
2019-03-27T17:10:54.961Z,5.20
2019-03-27T17:13:26.975Z,6.40
2019-03-27T17:16:00.060Z,7.43
2019-03-27T17:18:33.882Z,7.67
2019-03-27T17:21:06.322Z,7.77
2019-03-27T17:23:38.413Z,7.07
2019-03-27T17:26:10.418Z,6.50
2019-03-27T17:28:43.947Z,7.53
2019-03-27T17:31:17.064Z,7.57
2019-03-27T17:33:49.134Z,9.40
2019-03-27T17:36:21.268Z,8.50
2019-03-27T17:38:56.544Z,8.63
2019-03-27T17:41:29.049Z,9.07
2019-03-27T17:44:03.483Z,9.03
2019-03-27T17:46:35.451Z,8.83
2019-03-27T17:49:07.416Z,9.00
2019-03-27T17:51:39.527Z,8.47
2019-03-27T17:54:20.473Z,8.80
2019-03-27T17:56:45.179Z,9.30
2019-03-27T17:59:19.765Z,9.47
2019-03-27T18:01:55.484Z,8.73
2019-03-27T18:04:27.507Z,8.23
2019-03-27T18:06:59.446Z,8.50
2019-03-27T18:09:31.398Z,8.43
2019-03-27T18:12:06.271Z,9.00
2019-03-27T18:14:38.292Z,8.93
2019-03-27T18:17:10.315Z,8.93
2019-03-27T18:19:42.527Z,9.20
2019-03-27T18:22:14.506Z,9.20
2019-03-27T18:24:46.533Z,8.93
2019-03-27T18:27:18.546Z,9.60
2019-03-27T18:29:52.296Z,8.20
2019-03-27T18:32:24.351Z,8.33
2019-03-27T18:34:56.271Z,9.83
2019-03-27T18:37:29.315Z,8.20
2019-03-27T18:40:01.359Z,8.37
2019-03-27T18:42:33.516Z,8.97
2019-03-27T18:45:06.025Z,7.80
2019-03-27T18:47:40.294Z,8.20
2019-03-27T18:50:12.802Z,9.17
2019-03-27T18:52:44.798Z,9.70
2019-03-27T18:55:26.341Z,9.43
2019-03-27T18:58:00.156Z,9.40
2019-03-27T19:00:28.595Z,9.90
2019-03-27T19:03:00.658Z,9.27
2019-03-27T19:05:32.786Z,8.67
2019-03-27T19:08:04.829Z,8.87
2019-03-27T19:10:37.158Z,9.07
2019-03-27T19:13:11.745Z,8.07
2019-03-27T19:15:43.860Z,8.40
2019-03-27T19:18:15.950Z,8.87
2019-03-27T19:20:47.955Z,7.77
2019-03-27T19:23:19.995Z,8.87
2019-03-27T19:25:52.165Z,8.97
2019-03-27T19:28:26.679Z,9.63
2019-03-27T19:31:00.579Z,7.93
2019-03-27T19:33:32.686Z,8.30
2019-03-27T19:36:06.188Z,9.07
2019-03-27T19:38:38.248Z,8.27
2019-03-27T19:41:10.370Z,8.47
2019-03-27T19:43:42.628Z,8.57
2019-03-27T19:46:14.627Z,9.77
2019-03-27T19:48:56.011Z,9.13
2019-03-27T19:51:32.161Z,8.40
2019-03-27T19:54:06.747Z,9.07
2019-03-27T19:56:41.813Z,9.77
2019-03-27T19:59:13.809Z,8.40
2019-03-27T20:01:46.005Z,9.23
2019-03-27T20:04:19.821Z,8.53
2019-03-27T20:06:51.867Z,8.33
2019-03-27T20:09:23.964Z,9.23
2019-03-27T20:11:56.076Z,7.33
2019-03-27T20:14:28.276Z,9.17
2019-03-27T20:17:03.313Z,8.83
2019-03-27T20:19:35.443Z,7.97
2019-03-27T20:22:10.693Z,9.00
2019-03-27T20:24:44.318Z,8.50
2019-03-27T20:27:16.278Z,7.47
2019-03-27T20:29:48.305Z,8.03
2019-03-27T20:32:20.468Z,7.83
2019-03-27T20:34:52.561Z,8.47
2019-03-27T20:37:24.574Z,7.17
2019-03-27T20:39:57.959Z,7.07
2019-03-27T20:42:30.015Z,7.30
2019-03-27T20:45:02.256Z,8.60
2019-03-27T20:47:34.259Z,7.70
2019-03-27T20:50:12.478Z,8.73
2019-03-27T20:52:44.452Z,7.70
2019-03-27T20:55:29.315Z,8.30
2019-03-27T20:57:52.860Z,7.53
2019-03-27T21:00:25.070Z,7.50
2019-03-27T21:02:57.175Z,7.50
2019-03-27T21:05:29.230Z,8.37
2019-03-27T21:08:01.203Z,8.30
2019-03-27T21:10:33.149Z,8.63
2019-03-27T21:13:05.182Z,8.67
2019-03-27T21:15:38.771Z,8.43
2019-03-27T21:18:10.979Z,8.40
2019-03-27T21:20:43.038Z,8.10
2019-03-27T21:23:14.984Z,8.07
2019-03-27T21:25:47.031Z,8.37
2019-03-27T21:28:19.027Z,8.83
2019-03-27T21:30:52.820Z,8.13
2019-03-27T21:33:24.963Z,8.23
2019-03-27T21:36:03.963Z,8.43
2019-03-27T21:38:37.826Z,8.47
2019-03-27T21:41:11.393Z,9.00
2019-03-27T21:43:44.046Z,8.93
2019-03-27T21:46:19.547Z,7.70
2019-03-27T21:48:51.667Z,8.27
2019-03-27T21:51:24.274Z,9.10
2019-03-27T21:53:56.218Z,8.10
2019-03-27T21:56:28.243Z,10.50
2019-03-27T21:59:02.449Z,8.37
2019-03-27T22:01:35.551Z,8.40
2019-03-27T22:04:10.018Z,8.90
2019-03-27T22:06:48.289Z,9.03
2019-03-27T22:09:20.267Z,8.40
2019-03-27T22:11:52.259Z,8.03
2019-03-27T22:14:26.871Z,8.60
2019-03-27T22:17:02.224Z,8.03
2019-03-27T22:19:36.001Z,8.67
2019-03-27T22:22:08.027Z,8.73
2019-03-27T22:24:40.097Z,9.17
2019-03-27T22:27:14.630Z,8.33
2019-03-27T22:29:46.812Z,8.43
2019-03-27T22:32:18.832Z,8.37
2019-03-27T22:34:50.787Z,8.93
2019-03-27T22:37:22.875Z,9.17
2019-03-27T22:39:54.958Z,9.17
2019-03-27T22:42:26.940Z,9.90
2019-03-27T22:44:58.910Z,7.50
2019-03-27T22:47:30.909Z,8.70
2019-03-27T22:50:07.748Z,9.10
2019-03-27T22:52:42.078Z,7.73
2019-03-27T22:55:14.149Z,7.27
2019-03-27T22:57:46.253Z,7.93
2019-03-27T23:00:21.684Z,8.70
2019-03-27T23:02:58.868Z,9.30
2019-03-27T23:05:30.883Z,8.97
2019-03-27T23:08:02.831Z,8.93
2019-03-27T23:10:34.862Z,8.13
2019-03-27T23:13:08.666Z,8.63
2019-03-27T23:15:43.191Z,8.70
2019-03-27T23:18:15.296Z,8.00
2019-03-27T23:20:47.255Z,8.17
2019-03-27T23:23:19.284Z,7.73
2019-03-27T23:26:02.498Z,8.73
2019-03-27T23:28:24.939Z,8.03
2019-03-27T23:30:57.104Z,8.70
2019-03-27T23:33:32.195Z,8.33
2019-03-27T23:36:05.396Z,7.97
2019-03-27T23:38:38.859Z,7.50
2019-03-27T23:41:10.871Z,8.27
2019-03-27T23:43:42.990Z,8.20
2019-03-27T23:46:14.998Z,8.50
2019-03-27T23:48:47.160Z,7.73
2019-03-27T23:51:20.694Z,8.00
2019-03-27T23:53:54.149Z,7.70
2019-03-27T23:56:26.511Z,8.23
2019-03-27T23:58:58.495Z,7.93
